Time;durP1;ratioP1;P1;durP2;ratioP2;P2;SDS_P1;SDS_P2;PMS_P1;PMS_P2;Temp;Humidity;BMP_temperature;BMP_pressure;BME280_temperature;BME280_humidity;BME280_pressure;Samples;Min_cycle;Max_cycle;Signal;HPM_P1;HPM_P2
2023/01/13 00:00:56;;;;;;;19.77;8.50;;;24.00;99.90;;;;;;4937137;29;20134;-59
2023/01/13 00:03:22;;;;;;;15.57;8.35;;;24.00;99.90;;;;;;4937128;29;20024;-59
2023/01/13 00:05:48;;;;;;;14.50;9.07;;;24.00;99.90;;;;;;4937325;29;20461;-59
2023/01/13 00:08:14;;;;;;;13.63;8.05;;;23.90;99.90;;;;;;4937435;29;20036;-59
2023/01/13 00:10:40;;;;;;;13.93;8.07;;;23.90;99.90;;;;;;4935727;29;20031;-59
2023/01/13 00:13:05;;;;;;;13.85;8.05;;;23.90;99.90;;;;;;4936281;29;20373;-59
2023/01/13 00:15:32;;;;;;;14.40;8.57;;;23.90;99.90;;;;;;4936342;29;20020;-60
2023/01/13 00:17:58;;;;;;;13.63;7.40;;;23.90;99.90;;;;;;4934440;29;20518;-61
2023/01/13 00:20:24;;;;;;;11.85;7.93;;;23.90;99.90;;;;;;4936136;29;20027;-60
2023/01/13 00:22:49;;;;;;;16.58;7.43;;;23.90;99.90;;;;;;4935897;29;20020;-58
2023/01/13 00:25:15;;;;;;;16.98;7.80;;;23.90;99.90;;;;;;4935241;29;20039;-57
2023/01/13 00:27:41;;;;;;;12.85;6.70;;;23.80;99.90;;;;;;4936093;29;20023;-56
2023/01/13 00:30:07;;;;;;;16.38;7.93;;;23.80;99.90;;;;;;4936173;29;20043;-60
2023/01/13 00:32:33;;;;;;;11.13;7.35;;;23.80;99.90;;;;;;4936699;29;20767;-61
2023/01/13 00:34:59;;;;;;;15.05;7.30;;;23.80;99.90;;;;;;4936691;29;20110;-58
2023/01/13 00:37:25;;;;;;;15.05;6.90;;;23.80;99.90;;;;;;4936030;29;20067;-62
2023/01/13 00:39:52;;;;;;;14.52;7.80;;;23.70;99.90;;;;;;4935611;29;20028;-59
2023/01/13 00:45:03;;;;;;;14.55;7.10;;;23.80;99.90;;;;;;4936663;29;20067;-57
2023/01/13 00:47:29;;;;;;;12.43;7.32;;;23.80;99.90;;;;;;4936347;29;20109;-57
2023/01/13 00:49:55;;;;;;;12.52;7.18;;;23.70;99.90;;;;;;4936479;29;20062;-58
2023/01/13 00:52:21;;;;;;;11.23;6.90;;;23.70;99.90;;;;;;4936737;29;20023;-61
2023/01/13 00:54:46;;;;;;;11.02;6.85;;;23.70;99.90;;;;;;4935855;29;20439;-58
2023/01/13 00:57:14;;;;;;;12.52;5.97;;;23.70;99.90;;;;;;4936398;29;20040;-59
2023/01/13 00:59:40;;;;;;;9.82;6.20;;;23.60;99.90;;;;;;4948063;23;20051;-60
2023/01/13 01:02:06;;;;;;;16.50;6.72;;;23.70;99.90;;;;;;4936305;29;20070;-60
2023/01/13 01:04:32;;;;;;;12.95;6.68;;;23.60;99.90;;;;;;4935783;29;20090;-59
2023/01/13 01:06:57;;;;;;;11.10;6.72;;;23.60;99.90;;;;;;4935235;29;20388;-60
2023/01/13 01:09:31;;;;;;;12.32;7.22;;;23.60;99.90;;;;;;4935955;29;20374;-59
2023/01/13 01:11:57;;;;;;;12.75;7.35;;;23.60;99.90;;;;;;4935752;29;20372;-61
2023/01/13 01:14:23;;;;;;;9.52;6.40;;;23.60;99.90;;;;;;4936391;29;20043;-61
2023/01/13 01:16:49;;;;;;;10.63;6.28;;;23.60;99.90;;;;;;4935912;29;20027;-59
2023/01/13 01:19:15;;;;;;;9.15;6.03;;;23.60;99.90;;;;;;4935685;29;20042;-58
2023/01/13 01:21:40;;;;;;;10.32;6.25;;;23.60;99.90;;;;;;4935906;29;20022;-61
2023/01/13 01:24:06;;;;;;;11.48;6.93;;;23.50;99.90;;;;;;4935824;29;20039;-58
2023/01/13 01:26:32;;;;;;;9.50;6.28;;;23.60;99.90;;;;;;4935207;29;20024;-60
2023/01/13 01:28:58;;;;;;;13.10;6.93;;;23.50;99.90;;;;;;4934842;29;20028;-56
2023/01/13 01:31:27;;;;;;;18.02;6.82;;;23.50;99.90;;;;;;4935602;29;20027;-63
2023/01/13 01:33:53;;;;;;;13.88;6.90;;;23.50;99.90;;;;;;4933971;29;20114;-65
2023/01/13 01:36:21;;;;;;;11.80;6.55;;;23.50;99.90;;;;;;4934462;29;20019;-68
2023/01/13 01:38:48;;;;;;;10.85;6.63;;;23.50;99.90;;;;;;4935670;29;20020;-62
2023/01/13 01:41:17;;;;;;;13.73;6.38;;;23.50;99.90;;;;;;4935188;29;20024;-64
2023/01/13 01:44:15;;;;;;;9.35;5.60;;;23.50;99.90;;;;;;4935462;29;20499;-60
2023/01/13 01:46:43;;;;;;;10.68;5.55;;;23.50;99.90;;;;;;4925158;29;20062;-60
2023/01/13 01:49:30;;;;;;;13.77;5.72;;;23.40;99.90;;;;;;4934433;29;20038;-61
2023/01/13 01:51:59;;;;;;;;;;;23.40;99.90;;;;;;4935791;29;20050;-62
2023/01/13 01:55:03;;;;;;;10.60;5.53;;;23.40;99.90;;;;;;4935261;29;19913;-62
2023/01/13 01:57:41;;;;;;;7.93;6.05;;;23.40;99.90;;;;;;4949658;29;20380;-68
2023/01/13 02:00:08;;;;;;;9.65;5.60;;;23.30;99.90;;;;;;4934564;29;20481;-69
2023/01/13 02:02:35;;;;;;;9.25;5.53;;;23.30;99.90;;;;;;4934943;29;20405;-69
2023/01/13 02:05:01;;;;;;;11.52;6.03;;;23.30;99.90;;;;;;4933737;29;20486;-62
2023/01/13 02:07:30;;;;;;;9.48;5.50;;;23.30;99.90;;;;;;4935068;29;20032;-61
2023/01/13 02:10:01;;;;;;;11.48;6.30;;;23.30;99.90;;;;;;4934298;29;20379;-60
2023/01/13 02:12:33;;;;;;;7.45;5.70;;;23.30;99.90;;;;;;4933801;29;20102;-60
2023/01/13 02:15:08;;;;;;;11.40;6.25;;;23.20;99.90;;;;;;4933397;29;20016;-61
2023/01/13 02:17:58;;;;;;;7.68;5.15;;;23.30;99.90;;;;;;4933729;29;20087;-62
2023/01/13 02:21:01;;;;;;;13.25;4.70;;;23.20;99.90;;;;;;4933511;29;20380;-61
2023/01/13 02:27:00;;;;;;;7.85;5.47;;;23.20;99.90;;;;;;4934970;29;20059;-61
2023/01/13 02:33:00;;;;;;;7.85;5.07;;;23.10;99.90;;;;;;4934658;29;20535;-61
2023/01/13 02:35:29;;;;;;;9.38;5.07;;;23.10;99.90;;;;;;4935010;29;20028;-62
2023/01/13 02:37:57;;;;;;;7.07;4.97;;;23.00;99.90;;;;;;4933236;29;20023;-61
2023/01/13 02:40:31;;;;;;;7.82;5.28;;;23.00;99.90;;;;;;4933207;29;20444;-61
2023/01/13 02:46:16;;;;;;;10.38;5.72;;;23.00;99.90;;;;;;4937966;29;20082;-61
2023/01/13 02:48:45;;;;;;;9.05;5.35;;;23.00;99.90;;;;;;4941129;29;20028;-61
2023/01/13 02:51:18;;;;;;;8.52;5.05;;;22.90;99.90;;;;;;4941269;29;20052;-62
2023/01/13 02:53:52;;;;;;;10.95;5.57;;;22.90;99.90;;;;;;4939819;29;20110;-61
2023/01/13 02:56:20;;;;;;;10.60;5.15;;;22.90;99.90;;;;;;4941168;28;20504;-62
2023/01/13 02:58:47;;;;;;;9.40;5.10;;;22.90;99.90;;;;;;4941151;29;20106;-61
2023/01/13 03:01:13;;;;;;;;;;;22.90;99.90;;;;;;4941837;29;20043;-59
2023/01/13 03:03:38;;;;;;;6.55;4.47;;;22.90;99.90;;;;;;4941178;29;20290;-60
2023/01/13 03:06:12;;;;;;;8.38;4.68;;;22.90;99.90;;;;;;4941073;29;20028;-59
2023/01/13 03:08:53;;;;;;;7.40;4.35;;;22.90;99.90;;;;;;4939811;29;20036;-59
2023/01/13 03:11:19;;;;;;;8.27;4.85;;;22.90;99.90;;;;;;4941068;29;20425;-59
2023/01/13 03:14:21;;;;;;;7.43;5.22;;;22.80;99.90;;;;;;4941107;29;20032;-63
2023/01/13 03:17:17;;;;;;;8.10;4.55;;;22.80;99.90;;;;;;4940979;29;20552;-62
2023/01/13 03:19:52;;;;;;;9.80;4.28;;;22.80;99.90;;;;;;4932817;29;20114;-62
2023/01/13 03:22:36;;;;;;;6.50;4.32;;;22.80;99.90;;;;;;4940814;29;20031;-62
2023/01/13 03:25:28;;;;;;;6.80;4.25;;;22.80;99.90;;;;;;4940830;29;20118;-62
2023/01/13 03:27:58;;;;;;;6.10;4.20;;;22.80;99.90;;;;;;4940862;29;20164;-64
2023/01/13 03:30:43;;;;;;;10.60;4.32;;;22.70;99.90;;;;;;4940924;29;20027;-61
2023/01/13 03:33:16;;;;;;;7.07;4.22;;;22.80;99.90;;;;;;4939610;29;20046;-60
2023/01/13 03:35:50;;;;;;;8.82;4.47;;;22.70;99.90;;;;;;4940847;29;20558;-61
2023/01/13 03:38:40;;;;;;;13.63;4.78;;;22.70;99.90;;;;;;4940707;29;20055;-60
2023/01/13 03:41:16;;;;;;;7.70;4.55;;;22.70;99.90;;;;;;4939407;29;20031;-63
2023/01/13 03:46:49;;;;;;;10.88;4.25;;;22.70;99.90;;;;;;4940691;29;20059;-62
2023/01/13 03:49:21;;;;;;;7.35;3.80;;;22.60;99.90;;;;;;4940714;29;20032;-62
2023/01/13 03:51:52;;;;;;;7.03;3.60;;;22.60;99.90;;;;;;4940732;29;20093;-62
2023/01/13 03:54:21;;;;;;;7.65;3.70;;;22.60;99.90;;;;;;4940477;29;20043;-63
2023/01/13 03:56:55;;;;;;;5.93;3.58;;;22.60;99.90;;;;;;4939105;29;20020;-62
2023/01/13 03:59:25;;;;;;;5.95;3.78;;;22.60;99.90;;;;;;4938092;29;20031;-65
2023/01/13 04:01:51;;;;;;;6.20;3.72;;;22.60;99.90;;;;;;4937647;29;20031;-63
2023/01/13 04:04:39;;;;;;;8.50;4.05;;;22.50;99.90;;;;;;4937525;29;20035;-60
2023/01/13 04:07:23;;;;;;;6.45;3.22;;;22.60;99.90;;;;;;4937505;29;20019;-61
2023/01/13 04:09:50;;;;;;;5.13;3.58;;;22.60;99.90;;;;;;4937483;29;20032;-61
2023/01/13 04:12:27;;;;;;;9.93;4.63;;;22.50;99.90;;;;;;4936240;29;20086;-60
2023/01/13 04:14:54;;;;;;;7.55;3.75;;;22.50;99.90;;;;;;4937423;29;20378;-60
2023/01/13 04:17:20;;;;;;;6.50;4.13;;;22.50;99.90;;;;;;4937273;29;20038;-59
2023/01/13 04:19:46;;;;;;;5.63;3.80;;;22.50;99.90;;;;;;4937326;29;20042;-60
2023/01/13 04:22:12;;;;;;;5.85;3.58;;;22.50;99.90;;;;;;4935983;29;20480;-61
2023/01/13 04:24:37;;;;;;;10.82;4.78;;;22.50;99.90;;;;;;4937257;29;20042;-60
2023/01/13 04:27:03;;;;;;;8.55;3.95;;;22.50;99.90;;;;;;4937241;29;20028;-60
2023/01/13 04:29:29;;;;;;;7.80;3.97;;;22.40;99.90;;;;;;4937200;29;20039;-60
2023/01/13 04:31:55;;;;;;;5.60;3.33;;;22.40;99.90;;;;;;4937088;29;20535;-61
2023/01/13 04:34:20;;;;;;;5.15;3.35;;;22.40;99.90;;;;;;4937016;29;20059;-61
2023/01/13 04:36:46;;;;;;;8.38;3.25;;;22.40;99.90;;;;;;4936943;29;20028;-59
2023/01/13 04:39:12;;;;;;;5.35;3.13;;;22.40;99.90;;;;;;4936934;29;20086;-61
2023/01/13 04:44:22;;;;;;;6.63;3.33;;;22.40;99.90;;;;;;4936803;29;20396;-66
2023/01/13 04:46:47;;;;;;;6.57;3.60;;;22.40;99.90;;;;;;4935564;29;20020;-66
2023/01/13 04:49:13;;;;;;;4.85;3.25;;;22.40;99.90;;;;;;4936773;29;20537;-64
2023/01/13 04:51:39;;;;;;;6.38;3.50;;;22.30;99.90;;;;;;4936802;29;20028;-64
2023/01/13 04:54:05;;;;;;;5.97;3.72;;;22.30;99.90;;;;;;4936659;29;20106;-62
2023/01/13 04:56:31;;;;;;;5.07;3.67;;;22.30;99.90;;;;;;4937018;29;20408;-66
2023/01/13 04:58:56;;;;;;;5.90;3.35;;;22.30;99.90;;;;;;4936518;29;20055;-64
2023/01/13 05:01:22;;;;;;;5.80;3.42;;;22.30;99.90;;;;;;4986754;23;20047;-54
2023/01/13 05:03:48;;;;;;;4.70;3.40;;;22.30;99.90;;;;;;4970456;28;20510;-53
2023/01/13 05:06:14;;;;;;;5.28;3.50;;;22.30;99.90;;;;;;4955638;29;20051;-53
2023/01/13 05:08:40;;;;;;;6.75;3.55;;;22.30;99.90;;;;;;4954562;28;20082;-54
2023/01/13 05:16:58;;;;;;;6.47;3.72;;;22.30;99.90;;;;;;4955581;29;20369;-56
2023/01/13 05:19:20;;;;;;;7.07;3.80;;;22.20;99.90;;;;;;4954748;29;20058;-53
2023/01/13 05:25:30;;;;;;;5.72;3.38;;;22.20;99.90;;;;;;4955273;29;20091;-54
2023/01/13 05:27:25;;;;;;;7.03;3.50;;;22.20;99.90;;;;;;4950516;29;20035;-53
2023/01/13 05:29:51;;;;;;;4.43;3.70;;;22.20;99.90;;;;;;4955001;29;20477;-54
2023/01/13 05:32:16;;;;;;;6.50;3.30;;;22.20;99.90;;;;;;4955151;29;20035;-54
2023/01/13 05:34:42;;;;;;;4.93;3.55;;;22.20;99.90;;;;;;4955048;29;20020;-54
2023/01/13 05:37:09;;;;;;;6.10;3.50;;;22.10;99.90;;;;;;4955070;29;20115;-53
2023/01/13 05:45:04;;;;;;;5.20;3.15;;;22.10;99.90;;;;;;4954916;29;20502;-54
2023/01/13 05:47:31;;;;;;;3.88;2.80;;;22.10;99.90;;;;;;4969660;28;20063;-54
2023/01/13 05:49:57;;;;;;;4.47;3.23;;;22.10;99.90;;;;;;4955013;29;20428;-55
2023/01/13 05:52:22;;;;;;;4.00;2.83;;;22.10;99.90;;;;;;4954768;29;20258;-55
2023/01/13 05:54:48;;;;;;;6.05;3.20;;;22.10;99.90;;;;;;4954774;29;20416;-54
2023/01/13 05:57:14;;;;;;;5.35;3.25;;;22.00;99.90;;;;;;4954616;29;20054;-54
2023/01/13 05:59:40;;;;;;;6.95;3.25;;;22.00;99.90;;;;;;4954475;29;20495;-54
2023/01/13 06:02:05;;;;;;;4.53;2.80;;;22.00;99.90;;;;;;4954879;29;20443;-54
2023/01/13 06:04:31;;;;;;;7.43;3.00;;;22.00;99.90;;;;;;4954557;29;20110;-53
2023/01/13 06:06:57;;;;;;;4.78;2.97;;;22.00;99.90;;;;;;4954610;29;20097;-53
2023/01/13 06:09:22;;;;;;;3.55;2.67;;;22.00;99.90;;;;;;4954455;29;20384;-53
2023/01/13 06:11:48;;;;;;;5.75;3.47;;;22.00;99.90;;;;;;4954361;29;20456;-53
2023/01/13 06:14:14;;;;;;;5.53;3.35;;;22.00;99.90;;;;;;4954465;29;20023;-53
2023/01/13 06:16:40;;;;;;;4.53;3.08;;;22.00;99.90;;;;;;4969107;28;20027;-54
2023/01/13 06:19:07;;;;;;;5.90;3.08;;;22.00;99.90;;;;;;4954446;29;20387;-54
2023/01/13 06:21:34;;;;;;;6.55;2.85;;;21.90;99.90;;;;;;4953895;28;20027;-54
2023/01/13 06:24:00;;;;;;;6.10;3.20;;;21.90;99.90;;;;;;4954050;29;20527;-53
2023/01/13 06:26:28;;;;;;;4.75;2.50;;;21.90;99.90;;;;;;4954033;29;20019;-53
2023/01/13 06:28:53;;;;;;;3.90;2.90;;;21.90;99.90;;;;;;4969039;28;20468;-54
2023/01/13 06:31:19;;;;;;;4.43;2.53;;;21.90;99.90;;;;;;4969149;28;20106;-54
2023/01/13 06:33:51;;;;;;;3.70;2.88;;;21.90;99.90;;;;;;4954174;29;20030;-54
2023/01/13 06:36:21;;;;;;;5.28;3.22;;;21.90;99.90;;;;;;4954042;29;20063;-54
2023/01/13 06:38:50;;;;;;;4.25;2.75;;;21.90;99.90;;;;;;4954048;29;20106;-55
2023/01/13 06:43:13;;;;;;;4.35;3.00;;;21.90;99.90;;;;;;4954250;29;20094;-54
2023/01/13 06:44:03;;;;;;;5.35;3.58;;;21.90;99.90;;;;;;4954004;28;20075;-55
2023/01/13 06:46:29;;;;;;;3.40;2.42;;;21.90;99.90;;;;;;4954079;29;20491;-55
2023/01/13 06:48:54;;;;;;;4.80;2.90;;;21.90;99.90;;;;;;4953924;29;20080;-54
2023/01/13 06:51:20;;;;;;;4.78;2.47;;;21.80;99.90;;;;;;4953882;29;20539;-54
2023/01/13 06:53:46;;;;;;;5.00;3.13;;;21.80;99.90;;;;;;4953934;29;20016;-54
2023/01/13 06:56:12;;;;;;;4.47;3.05;;;21.80;99.90;;;;;;4953910;29;20522;-55
2023/01/13 06:58:37;;;;;;;4.97;2.72;;;21.80;99.90;;;;;;4954068;29;20519;-54
2023/01/13 07:01:03;;;;;;;5.63;2.92;;;21.80;99.90;;;;;;4953686;29;20078;-54
2023/01/13 07:03:29;;;;;;;3.30;2.50;;;21.80;99.90;;;;;;4953928;29;20803;-54
2023/01/13 07:05:55;;;;;;;3.70;2.92;;;21.80;99.90;;;;;;4953744;29;20365;-54
2023/01/13 07:08:23;;;;;;;2.95;2.35;;;21.80;99.90;;;;;;4953953;29;20456;-54
2023/01/13 07:10:50;;;;;;;;;;;21.70;99.90;;;;;;4954347;29;20102;-54
2023/01/13 07:16:02;;;;;;;4.55;2.83;;;21.70;99.90;;;;;;4953866;29;20116;-55
2023/01/13 07:18:33;;;;;;;5.15;3.38;;;21.70;99.90;;;;;;4953709;29;20031;-54
2023/01/13 07:21:05;;;;;;;4.93;3.10;;;21.70;99.90;;;;;;4953593;29;20016;-54
2023/01/13 07:23:33;;;;;;;4.43;2.97;;;21.70;99.90;;;;;;4968400;28;20069;-54
2023/01/13 07:25:59;;;;;;;5.90;3.33;;;21.70;99.90;;;;;;4953711;29;20027;-54
2023/01/13 07:28:26;;;;;;;4.53;2.78;;;21.70;99.90;;;;;;4953688;29;20020;-55
2023/01/13 07:30:52;;;;;;;11.15;3.20;;;21.70;99.90;;;;;;4953528;29;20024;-54
2023/01/13 07:33:18;;;;;;;8.38;3.47;;;21.70;99.90;;;;;;4956054;29;20036;-54
2023/01/13 07:35:45;;;;;;;4.68;3.10;;;21.60;99.90;;;;;;4957266;29;20046;-54
2023/01/13 07:38:11;;;;;;;6.43;3.53;;;21.60;99.90;;;;;;4957294;29;20054;-54
2023/01/13 07:40:38;;;;;;;4.45;3.05;;;21.70;99.90;;;;;;4957217;29;20476;-54
2023/01/13 07:45:48;;;;;;;5.82;3.17;;;21.60;99.90;;;;;;4957088;29;20054;-54
2023/01/13 07:48:14;;;;;;;5.30;3.25;;;21.60;99.90;;;;;;4957153;29;20028;-54
2023/01/13 07:50:40;;;;;;;5.78;3.40;;;21.60;99.90;;;;;;4957258;29;20067;-54
2023/01/13 07:53:05;;;;;;;5.45;3.20;;;21.60;99.90;;;;;;4956834;29;20027;-54
2023/01/13 07:55:31;;;;;;;5.30;3.15;;;21.60;99.90;;;;;;4956840;29;20024;-54
2023/01/13 07:57:57;;;;;;;7.30;3.33;;;21.60;99.90;;;;;;4956720;29;20101;-54
2023/01/13 08:00:23;;;;;;;4.47;3.67;;;21.70;99.90;;;;;;4956554;29;20073;-54
2023/01/13 08:02:48;;;;;;;9.63;3.72;;;21.70;99.90;;;;;;4956683;29;20361;-54
2023/01/13 08:05:15;;;;;;;4.97;3.60;;;21.70;99.90;;;;;;4956843;29;20035;-54
2023/01/13 08:07:41;;;;;;;4.38;3.40;;;21.70;99.90;;;;;;4956928;29;20420;-54
2023/01/13 08:10:07;;;;;;;6.72;4.63;;;21.70;99.90;;;;;;4956415;29;20035;-54
2023/01/13 08:15:16;;;;;;;6.18;4.07;;;21.70;99.90;;;;;;4956796;29;20110;-54
2023/01/13 08:17:42;;;;;;;6.43;4.15;;;21.80;99.90;;;;;;4956814;29;20535;-54
2023/01/13 08:20:09;;;;;;;6.45;4.00;;;21.80;99.90;;;;;;4956525;29;20028;-54
2023/01/13 08:22:34;;;;;;;6.15;4.35;;;21.80;99.90;;;;;;4971253;28;20484;-53
2023/01/13 08:25:00;;;;;;;9.15;5.45;;;21.80;99.90;;;;;;4954959;29;20042;-53
2023/01/13 08:27:26;;;;;;;7.15;4.75;;;21.80;99.90;;;;;;4956402;29;20034;-54
2023/01/13 08:29:52;;;;;;;13.43;4.45;;;21.80;99.90;;;;;;4956169;29;20035;-53
2023/01/13 08:32:17;;;;;;;8.52;4.78;;;21.80;99.90;;;;;;4956162;29;20050;-54
2023/01/13 08:34:43;;;;;;;9.10;5.18;;;21.80;99.90;;;;;;4956324;29;20074;-54
2023/01/13 08:37:09;;;;;;;6.85;4.80;;;21.90;99.90;;;;;;4956034;29;20042;-54
2023/01/13 08:39:35;;;;;;;7.93;5.25;;;21.90;99.90;;;;;;4956018;29;20027;-54
2023/01/13 08:42:02;;;;;;;5.85;4.60;;;21.90;99.90;;;;;;4955819;29;20023;-54
2023/01/13 08:44:30;;;;;;;9.13;4.63;;;21.90;99.90;;;;;;4955605;28;20039;-54
2023/01/13 08:46:56;;;;;;;7.20;4.38;;;21.90;99.90;;;;;;4970707;28;20059;-54
2023/01/13 08:49:23;;;;;;;7.85;4.50;;;21.90;99.90;;;;;;4955799;29;20102;-54
2023/01/13 08:51:49;;;;;;;6.47;4.50;;;22.00;99.90;;;;;;4955655;29;20023;-54
2023/01/13 08:54:16;;;;;;;5.75;4.40;;;22.00;99.90;;;;;;4955547;29;20545;-53
2023/01/13 08:56:43;;;;;;;6.63;4.15;;;22.00;99.90;;;;;;4955922;29;20611;-54
2023/01/13 08:59:18;;;;;;;6.50;4.50;;;22.10;99.90;;;;;;4955496;28;20043;-54
2023/01/13 09:01:44;;;;;;;7.22;4.43;;;22.10;99.90;;;;;;4955615;29;20069;-54
2023/01/13 09:04:19;;;;;;;7.15;4.65;;;22.10;99.90;;;;;;4955509;29;20079;-55
2023/01/13 09:06:45;;;;;;;6.78;4.70;;;22.10;99.90;;;;;;4954472;29;20024;-54
2023/01/13 09:09:11;;;;;;;7.93;4.30;;;22.20;99.90;;;;;;4955516;29;20495;-53
2023/01/13 09:14:28;;;;;;;7.07;4.20;;;22.20;99.90;;;;;;4955713;29;20057;-54
2023/01/13 09:16:54;;;;;;;10.88;4.95;;;22.30;99.90;;;;;;4955292;29;20034;-54
2023/01/13 09:19:19;;;;;;;7.13;4.40;;;22.30;99.90;;;;;;4955235;29;20035;-53
2023/01/13 09:21:45;;;;;;;8.63;4.70;;;22.30;99.90;;;;;;4955498;29;20027;-53
2023/01/13 09:24:11;;;;;;;9.88;5.05;;;22.30;99.90;;;;;;4955139;29;20031;-54
2023/01/13 09:26:37;;;;;;;9.43;4.88;;;22.40;99.90;;;;;;4955224;29;20498;-54
2023/01/13 09:29:03;;;;;;;9.32;4.78;;;22.40;99.90;;;;;;4953817;29;20086;-54
2023/01/13 09:31:33;;;;;;;9.88;4.72;;;22.40;99.90;;;;;;4955019;29;20031;-54
2023/01/13 09:36:44;;;;;;;7.22;4.53;;;22.40;99.90;;;;;;4955561;29;20115;-53
2023/01/13 09:39:10;;;;;;;6.93;4.72;;;22.50;99.90;;;;;;4955105;29;20058;-53
2023/01/13 09:44:48;;;;;;;7.75;4.90;;;22.50;99.90;;;;;;4954925;29;20539;-54
2023/01/13 09:47:39;;;;;;;6.75;4.95;;;22.50;99.90;;;;;;4954955;29;20110;-54
2023/01/13 09:50:18;;;;;;;10.18;5.18;;;22.60;99.90;;;;;;4954810;29;20439;-54
2023/01/13 09:52:43;;;;;;;7.30;4.45;;;22.60;99.90;;;;;;4954764;29;20034;-54
2023/01/13 09:55:35;;;;;;;9.70;4.82;;;22.60;99.90;;;;;;4953039;28;20336;-54
2023/01/13 09:58:11;;;;;;;6.10;4.68;;;22.60;99.90;;;;;;4952691;29;20039;-53
2023/01/13 10:00:57;;;;;;;8.45;4.63;;;22.60;99.90;;;;;;4954513;29;20053;-53
2023/01/13 10:03:30;;;;;;;9.13;4.10;;;22.60;99.90;;;;;;4954541;29;20055;-54
2023/01/13 10:06:08;;;;;;;10.32;4.32;;;22.70;99.90;;;;;;4954578;29;20027;-54
2023/01/13 10:08:37;;;;;;;6.53;4.00;;;22.70;99.90;;;;;;4954403;29;20019;-53
2023/01/13 10:14:17;;;;;;;12.05;4.95;;;22.70;99.90;;;;;;4954611;29;20038;-53
2023/01/13 10:16:55;;;;;;;5.80;3.97;;;22.80;99.90;;;;;;4954305;29;20027;-54
2023/01/13 10:19:35;;;;;;;5.38;3.70;;;22.80;99.90;;;;;;4969197;28;20025;-54
2023/01/13 10:22:25;;;;;;;6.70;4.22;;;22.80;99.90;;;;;;4954378;29;20039;-54
2023/01/13 10:25:27;;;;;;;6.93;4.03;;;22.90;99.90;;;;;;4954086;29;20130;-54
2023/01/13 10:27:55;;;;;;;5.40;3.70;;;22.90;99.90;;;;;;4953703;29;20043;-54
2023/01/13 10:30:31;;;;;;;9.23;4.80;;;23.00;99.90;;;;;;4954192;29;20078;-54
2023/01/13 10:33:05;;;;;;;9.07;4.25;;;23.00;99.90;;;;;;4953879;29;20024;-54
2023/01/13 10:35:49;;;;;;;7.15;3.75;;;23.00;99.90;;;;;;4952999;28;20090;-54
2023/01/13 10:38:19;;;;;;;8.05;3.58;;;23.10;99.90;;;;;;4954017;29;20066;-54
2023/01/13 10:40:53;;;;;;;7.75;3.67;;;23.20;99.90;;;;;;4953881;29;20027;-53
2023/01/13 10:43:19;;;;;;;12.38;3.92;;;23.20;99.90;;;;;;4954171;29;20106;-54
2023/01/13 10:46:10;;;;;;;11.35;3.85;;;23.30;99.90;;;;;;4953819;29;20530;-54
2023/01/13 10:48:41;;;;;;;8.73;4.32;;;23.30;99.90;;;;;;4953158;29;20110;-54
2023/01/13 10:51:09;;;;;;;7.30;3.65;;;23.30;99.90;;;;;;4953381;29;20036;-54
2023/01/13 10:53:54;;;;;;;12.48;4.10;;;23.40;99.90;;;;;;4968152;28;20400;-53
2023/01/13 10:56:21;;;;;;;9.02;3.70;;;23.50;99.90;;;;;;4953035;29;20499;-54
2023/01/13 10:58:47;;;;;;;8.13;3.45;;;23.50;99.90;;;;;;4953345;29;20116;-53
2023/01/13 11:01:24;;;;;;;7.80;3.55;;;23.60;99.90;;;;;;4952950;29;20075;-53
2023/01/13 11:03:54;;;;;;;8.07;3.88;;;23.60;99.90;;;;;;4951819;29;20440;-55
2023/01/13 11:06:26;;;;;;;8.18;3.03;;;23.70;99.90;;;;;;4954235;28;20985;-59
2023/01/13 11:08:57;;;;;;;9.65;3.47;;;23.70;99.90;;;;;;4955604;29;20019;-57
2023/01/13 11:11:43;;;;;;;5.93;3.55;;;23.80;99.90;;;;;;4957522;29;20392;-54
2023/01/13 11:14:41;;;;;;;6.07;3.47;;;23.80;99.90;;;;;;4957147;29;20406;-56
2023/01/13 11:17:31;;;;;;;11.18;4.63;;;23.90;99.90;;;;;;4957202;29;20027;-54
2023/01/13 11:20:14;;;;;;;11.57;3.70;;;23.90;99.90;;;;;;4957386;29;20498;-54
2023/01/13 11:22:48;;;;;;;5.97;3.10;;;23.90;99.90;;;;;;4957511;29;20102;-54
2023/01/13 11:25:32;;;;;;;10.85;3.17;;;23.90;99.90;;;;;;4956542;29;20047;-54
2023/01/13 11:28:29;;;;;;;7.13;4.35;;;23.90;99.90;;;;;;4957364;29;20078;-54
2023/01/13 11:31:19;;;;;;;10.40;3.08;;;24.00;99.90;;;;;;4957485;29;20031;-54
2023/01/13 11:34:13;;;;;;;6.60;3.42;;;24.00;99.90;;;;;;4957263;29;20387;-54
2023/01/13 11:36:45;;;;;;;7.45;3.30;;;24.10;99.90;;;;;;4950544;28;20553;-54
2023/01/13 11:39:20;;;;;;;9.00;2.80;;;24.10;99.90;;;;;;4957274;29;20027;-54
2023/01/13 11:42:19;;;;;;;9.68;3.50;;;24.10;99.90;;;;;;4956919;29;20189;-55
2023/01/13 11:44:53;;;;;;;5.75;3.17;;;24.10;99.90;;;;;;4956921;28;20045;-54
2023/01/13 11:47:22;;;;;;;4.90;3.25;;;24.20;99.90;;;;;;4971808;28;20388;-54
2023/01/13 11:49:48;;;;;;;8.40;3.53;;;24.20;99.90;;;;;;4956900;29;20085;-54
2023/01/13 11:52:17;;;;;;;6.70;3.28;;;24.20;99.90;;;;;;4956961;29;20118;-54
2023/01/13 11:54:58;;;;;;;7.38;3.25;;;24.30;99.90;;;;;;4955529;29;20027;-54
2023/01/13 11:57:33;;;;;;;10.88;3.67;;;24.30;99.90;;;;;;4956905;29;20023;-54
2023/01/13 12:00:06;;;;;;;12.15;3.58;;;24.30;99.90;;;;;;4956746;29;20067;-54
2023/01/13 12:02:44;;;;;;;6.10;2.85;;;24.40;99.90;;;;;;4956899;29;20027;-54
2023/01/13 12:05:34;;;;;;;37.13;6.07;;;24.40;99.90;;;;;;4956118;29;20473;-54
2023/01/13 12:08:37;;;;;;;22.95;4.82;;;24.40;99.90;;;;;;4937414;29;20107;-54
2023/01/13 12:11:11;;;;;;;22.65;5.38;;;24.50;99.90;;;;;;4952087;29;20042;-54
2023/01/13 12:14:15;;;;;;;26.88;5.00;;;24.50;99.90;;;;;;4960171;28;20019;-54
2023/01/13 12:16:47;;;;;;;15.07;4.18;;;24.50;99.90;;;;;;4955900;29;20028;-55
2023/01/13 12:19:26;;;;;;;11.40;4.15;;;24.60;99.90;;;;;;4955635;28;20031;-54
2023/01/13 12:22:10;;;;;;;18.70;4.25;;;24.60;99.90;;;;;;4954964;29;20388;-54
2023/01/13 12:24:45;;;;;;;18.13;4.05;;;24.60;99.90;;;;;;4956118;29;20086;-54
2023/01/13 12:27:22;;;;;;;22.48;4.30;;;24.70;99.90;;;;;;4956228;29;20022;-55
2023/01/13 12:29:51;;;;;;;13.55;4.35;;;24.70;99.90;;;;;;4956365;29;20086;-54
2023/01/13 12:32:20;;;;;;;15.48;3.80;;;24.70;99.90;;;;;;4955471;29;20071;-54
2023/01/13 12:35:00;;;;;;;17.17;3.67;;;24.80;99.90;;;;;;4955988;29;20075;-55
2023/01/13 12:37:30;;;;;;;15.07;4.05;;;24.70;99.90;;;;;;4956422;29;20027;-54
2023/01/13 12:40:20;;;;;;;13.07;3.90;;;24.80;99.90;;;;;;4956490;29;20543;-55
2023/01/13 12:45:49;;;;;;;14.68;3.95;;;24.80;99.90;;;;;;4955986;29;20114;-55
2023/01/13 12:48:55;;;;;;;16.92;4.00;;;24.90;99.90;;;;;;4956092;29;20027;-55
2023/01/13 12:51:26;;;;;;;10.60;3.30;;;24.90;99.90;;;;;;4955937;29;20030;-56
2023/01/13 12:53:53;;;;;;;7.30;3.20;;;25.00;99.90;;;;;;4954451;29;20034;-55
2023/01/13 12:56:40;;;;;;;9.73;3.13;;;25.00;99.90;;;;;;4955881;29;20365;-55
2023/01/13 12:59:15;;;;;;;7.72;3.97;;;25.00;99.90;;;;;;4955713;29;20024;-56
2023/01/13 13:01:43;;;;;;;8.75;4.75;;;25.00;99.90;;;;;;4955567;29;20574;-55
2023/01/13 13:04:16;;;;;;;6.85;3.50;;;25.00;99.90;;;;;;4955410;29;20066;-55
2023/01/13 13:07:04;;;;;;;9.80;4.28;;;25.00;99.90;;;;;;4955568;29;20027;-55
2023/01/13 13:09:39;;;;;;;11.82;4.05;;;25.10;99.90;;;;;;4955367;28;20054;-54
2023/01/13 13:15:34;;;;;;;7.25;4.00;;;25.10;99.90;;;;;;4955336;29;20094;-55
2023/01/13 13:18:20;;;;;;;15.00;4.55;;;25.10;99.90;;;;;;4955631;29;20027;-55
2023/01/13 13:21:05;;;;;;;8.95;3.88;;;25.10;99.90;;;;;;4955402;29;20459;-55
2023/01/13 13:23:37;;;;;;;8.85;4.30;;;25.20;99.90;;;;;;4955415;29;20041;-55
2023/01/13 13:26:18;;;;;;;10.32;4.25;;;25.20;99.90;;;;;;4970091;28;20110;-55
2023/01/13 13:29:22;;;;;;;9.70;4.15;;;25.20;99.90;;;;;;4955225;29;20074;-56
2023/01/13 13:32:11;;;;;;;7.13;3.85;;;25.20;99.90;;;;;;4954736;29;20376;-55
2023/01/13 13:35:32;;;;;;;9.02;4.03;;;25.20;99.90;;;;;;4955171;29;20383;-54
2023/01/13 13:47:02;;;;;;;51.88;32.40;;;25.20;99.90;;;;;;4954400;29;20031;-55
2023/01/13 13:49:38;;;;;;;;;;;25.30;99.90;;;;;;4955024;28;20027;-55
2023/01/13 13:52:34;;;;;;;41.30;23.05;;;25.20;99.90;;;;;;4952281;29;19973;-55
2023/01/13 13:55:18;;;;;;;29.20;18.98;;;25.30;99.90;;;;;;4955125;28;20059;-56
2023/01/13 13:57:50;;;;;;;30.10;18.95;;;25.30;99.90;;;;;;4954723;28;20039;-56
2023/01/13 14:00:18;;;;;;;28.67;17.80;;;25.30;99.90;;;;;;4954679;28;20440;-57
2023/01/13 14:02:51;;;;;;;21.50;13.93;;;25.30;99.90;;;;;;4954175;28;20027;-56
2023/01/13 14:05:26;;;;;;;21.27;13.90;;;25.30;99.90;;;;;;4953973;29;20046;-57
2023/01/13 14:08:16;;;;;;;28.33;12.88;;;25.30;99.90;;;;;;4954254;28;20082;-57
2023/01/13 14:10:44;;;;;;;31.90;13.95;;;25.30;99.90;;;;;;4954496;29;20456;-57
2023/01/13 14:13:13;;;;;;;22.83;12.13;;;25.40;99.90;;;;;;4954746;29;20031;-57
2023/01/13 14:15:39;;;;;;;27.70;12.80;;;25.40;99.90;;;;;;4953092;29;20027;-57
2023/01/13 14:18:12;;;;;;;26.75;13.23;;;25.40;99.90;;;;;;4954645;29;20027;-57